Terminal Aerodrome Forecast
Issued by NWS Tampa Bay Area, FL

Home | Current Version | Previous Version | Text Only | Print | Product List | Glossary On
Versions: 1 2 3 4 5 6 7 8 9 10 11 12 13 14 15
164
FTUS42 KTBW 171739
TAFSRQ
TAF
KSRQ 171739Z 1718/1818 20009KT P6SM FEW040 SCT250
     FM172100 23008KT P6SM FEW050 SCT250
     FM180000 VRB03KT P6SM SCT060 SCT250
     FM181400 16006KT P6SM SCT030 SCT250
     FM181700 21009KT P6SM SCT040 SCT250=

USA.gov is the U.S. government's official web portal to all federal, state and local government web resources and services.